A80 TRACON Summary / KATL TAF
ATL TRACON Summary:
A cold front will move across TN by this afternoon isolated thunderstorms are possible ahead of this line over the North and west TRACON, but Precipitation chances should only increase this afternoon and evening. Expect VFR conditions through this morning, with patchy IFR/LIFR conditions in frequently foggy areas. Surface winds will begin mostly calm or variable, but should resume mostly south-southwest at up to 7kts after 13z. Flight hazards in the TRACON airspace: None expected.

Updated: 6/27/2016 5:57 AM
ATL Terminal Aerodrome Forecast:

FTUS80 KATL 271406 AAA
KATL 271405Z 2714/2818 24005KT P6SM FEW120 SCT250
     FM271600 23007KT P6SM SCT035
     FM271800 22009KT P6SM VCSH SCT050
      TEMPO 2720/2723 5SM -TSRA BKN035CB
     FM280100 30005KT P6SM SCT070 BKN150
     FM281400 35006KT P6SM SCT035
ATL TRACON Area Remark:
NONE.
Convective Gate Forecast / Collaborative Convective Forecast Product / Vertical Wind Profile
Convective Gate Forecast
AIRMETs & SIGMETS/ Southeast Radar loop / Satellite Image (click on image to enlarge)

Southeast Radar Loop

 



USA.gov is the U.S. government's official web portal to all federal, state and local government web resources and services.